Tiempo atmosférico en la estación meteorológica de Nuñomoral, Cáceres (475 m.)



Fecha
DESCASC
Temp. máxima en grados centígrados (hora)
DESCASC
Temp. mínima en grados centígrados (hora)
DESCASC
Temp. media en grados centígrados
DESCASC
Racha de viento máxima en m/sg (hora)
DESCASC
Velocidad máxima media en intervalos de 10 minutos(hora)
DESCASC
Precipitaciones diarias en mm
DESCASC
Precipitaciones de 00:00 a 06:00 en mm
DESCASC
Precipitaciones de 06:00 a 12:00 en mm
DESCASC
Precipitaciones de 12:00 a 18:00 en mm
DESCASC
Precipitaciones de 18:00 a 24:00 en mm
DESCASC
18-06-2019 24.4 (19:10) 7.1 (00:00) 15.7 11.94 (13:00) 5.28 (13:00) 0.4 0 0 0.2 0.2
01-07-2019 33.8 (18:20) 15.3 (07:50) 24.5 7.78 (01:00) 4.72 (13:10) 0 0 0 0 0
15-07-2019 36.3 (17:10) 18.2 (00:00) 27.3 8.89 (13:50) 4.44 (13:50) 0 0 0 0 0
14-07-2019 34.7 (17:10) 16.6 (00:00) 25.7 7.78 (19:00) 4.44 (19:00) 0 0 0 0 0
13-07-2019 30.7 (17:50) 16 (00:00) 23.4 12.22 (21:30) 6.67 (21:20) 0 0 0 0 0
12-07-2019 36 (14:10) 15.3 (00:00) 25.7 6.67 (13:20) 3.89 (13:20) 0 0 0 0 0
11-07-2019 38.2 (17:40) 12.8 (00:00) 25.5 8.61 (15:40) 4.17 (15:40) 0 0 0 0 0
10-07-2019 34.7 (18:40) 12.3 (00:00) 23.5 7.22 (17:40) 3.61 (16:00) 0 0 0 0 0
09-07-2019 29.5 (16:40) 11.5 (00:00) 20.5 9.17 (14:00) 4.17 (14:10) 0 0 0 0 0
08-07-2019 28 (15:50) 12.4 (00:00) 20.2 14.44 (20:50) 7.22 (21:00) 1.4 0 0 0 1.4
07-07-2019 30.3 (18:00) 12.1 (00:00) 21.2 10.28 (14:40) 5.28 (22:30) 0 0 0 0 0
06-07-2019 30.5 (19:00) 10.6 (00:00) 20.6 10.83 (17:10) 5.56 (14:40) 0 0 0 0 0
05-07-2019 29.7 (18:30) 10.1 (00:00) 19.9 12.5 (17:40) 5.83 (18:00) 0 0 0 0 0
04-07-2019 29.4 (19:10) 11.5 (00:00) 20.4 13.33 (16:00) 4.72 (13:50) 0 0 0 0 0
03-07-2019 32.2 (18:00) 11.1 (00:00) 21.7 9.72 (13:20) 4.72 (13:20) 0 0 0 0 0
02-07-2019 32.4 (15:50) 14.6 (07:50) 23.5 11.67 (17:20) 6.11 (17:20) 0 0 0 0 0
16-06-2019 28.9 (19:30) 6.6 (00:00) 17.7 8.33 (14:50) 3.89 (17:50) 0 0 0 0 0
30-06-2019 34.7 (19:00) 17.8 (00:00) 26.3 10 (13:50) 4.72 (13:50) 0 0 0 0 0
29-06-2019 37 (18:30) 16.2 (00:00) 26.6 10.56 (23:50) 5.83 (23:50) 0 0 0 0 0
28-06-2019 37.6 (19:10) 15.2 (00:00) 26.4 10 (17:10) 5.28 (15:50) 0 0 0 0 0
27-06-2019 31.7 (16:50) 12.9 (00:00) 22.3 11.39 (15:20) 4.72 (12:20) 0 0 0 0 0
26-06-2019 29.7 (19:50) 13 (00:00) 21.4 11.67 (17:30) 6.11 (18:40) 0 0 0 0 0
25-06-2019 30.1 (17:20) 13.6 (00:00) 21.9 8.89 (16:20) 4.72 (14:30) 0.2 0 0.2 0 0
24-06-2019 24.7 (13:10) 15.3 (00:00) 20 12.22 (13:30) 6.39 (13:20) 3 0 0 0 3
23-06-2019 29.4 (17:10) 9.7 (00:00) 19.5 11.11 (15:00) 4.72 (15:40) 0 0 0 0 0
22-06-2019 30.5 (19:30) 10.8 (00:00) 20.7 10.83 (15:40) 5 (13:50) 0 0 0 0 0
21-06-2019 28.6 (18:50) 14 (00:00) 21.3 8.33 (00:20) 4.72 (10:10) 0 0 0 0 0
20-06-2019 27.1 (18:20) 13.1 (00:00) 20.1 8.61 (23:30) 4.44 (20:10) 0 0 0 0 0
19-06-2019 24.9 (19:40) 12.2 (00:00) 18.5 9.17 (13:20) 5.28 (13:20) 0.2 0 0.2 0 0
17-06-2019 28.2 (16:00) 8.3 (00:00) 18.3 9.72 (15:40) 5 (15:20) 0 0 0 0 0

Gráficas

Temp. máximas Temp. mínimas Temp. medias Precipitaciones Rachas de viento máximas Velocidades máximas media en intervalos de 10 minutos

Datos horarios

Fecha y hora oficial Temperatura (ºC) Velocidad del viento (km/h) Dirección del viento Racha (km/h) Dirección de racha Precipitación (mm) Presión (hPa) Tendencia (hPa) Humedad (%)
2019-07-15 23:00:00 27 2 Oeste 9 Oeste 0 -- -- 37
2019-07-15 22:00:00 30.1 5 Oeste 14 Oeste 0 -- -- 32
2019-07-15 21:00:00 33 7 Noroeste 16 Noroeste 0 -- -- 26
2019-07-15 20:00:00 34.6 10 Noroeste 23 Oeste 0 -- -- 26
2019-07-15 19:00:00 35.6 8 Noroeste 25 Oeste 0 -- -- 23
2019-07-15 18:00:00 35.8 6 Oeste 27 Oeste 0 -- -- 24
2019-07-15 17:00:00 36 11 Norte 24 Oeste 0 -- -- 21
2019-07-15 16:00:00 35.2 10 Oeste 28 Norte 0 -- -- 22
2019-07-15 15:00:00 34.6 12 Noroeste 28 Oeste 0 -- -- 23
2019-07-15 14:00:00 33.7 10 Noroeste 32 Oeste 0 -- -- 25
2019-07-15 13:00:00 32.1 12 Sudoeste 18 Oeste 0 -- -- 32
2019-07-15 12:00:00 30.7 4 Sudoeste 11 Oeste 0 -- -- 36
2019-07-15 11:00:00 29.6 3 Este 9 Oeste 0 -- -- 38
2019-07-15 10:00:00 25.6 4 Sudoeste 13 Oeste 0 -- -- 55
2019-07-15 09:00:00 20.7 3 Norte 8 Norte 0 -- -- 70
2019-07-15 08:00:00 18.2 -- -- -- -- 0 -- -- 78
2019-07-15 07:00:00 18.6 5 Norte 10 Norte 0 -- -- 77
2019-07-15 06:00:00 19.6 3 Norte 9 Norte 0 -- -- 74
2019-07-15 05:00:00 21.4 5 Noroeste 18 Sudoeste 0 -- -- 69
2019-07-15 04:00:00 22.3 12 Sudoeste 22 Oeste 0 -- -- 66
2019-07-15 03:00:00 24.3 13 Sudoeste 22 Oeste 0 -- -- 61
2019-07-15 02:00:00 25.2 7 Oeste 21 Nordeste 0 -- -- 58
2019-07-15 01:00:00 26.2 6 Oeste 24 Sudoeste 0 -- -- 56
2019-07-15 00:00:00 27.2 10 Oeste 24 Oeste 0 -- -- 52
2019-07-14 23:00:00 27.4 9 Oeste 21 Noroeste 0 -- -- 47
2019-07-14 22:00:00 29.2 5 Oeste 16 Oeste 0 -- -- 39
2019-07-14 21:00:00 31.9 4 Oeste 15 Noroeste 0 -- -- 34
2019-07-14 20:00:00 34.4 7 Noroeste 23 Oeste 0 -- -- 27
2019-07-14 19:00:00 33.9 16 Oeste 28 Sudoeste 0 -- -- 28
2019-07-14 18:00:00 34.3 10 Oeste 28 Oeste 0 -- -- 27
2019-07-14 17:00:00 34.3 6 Norte 24 Norte 0 -- -- 27
2019-07-14 16:00:00 33.9 5 Nordeste 23 Oeste 0 -- -- 28
2019-07-14 15:00:00 32.1 11 Sudeste 24 Este 0 -- -- 34
2019-07-14 14:00:00 30.7 5 Nordeste 17 Sudoeste 0 -- -- 36
2019-07-14 13:00:00 29.4 5 Sudoeste 17 Este 0 -- -- 42
2019-07-14 12:00:00 26.9 4 Sur 15 Sudoeste 0 -- -- 49
2019-07-14 11:00:00 25.6 4 Sudeste 15 Oeste 0 -- -- 52
2019-07-14 10:00:00 22.7 6 Noroeste 22 Oeste 0 -- -- 63
2019-07-14 09:00:00 20.8 9 Noroeste 20 Noroeste 0 -- -- 69
2019-07-14 08:00:00 19.3 9 Sudoeste 26 Oeste 0 -- -- 76
2019-07-14 07:00:00 18 8 Oeste 17 Oeste 0 -- -- 80
2019-07-14 06:00:00 17.3 8 Oeste 14 Oeste 0 -- -- 82
2019-07-14 05:00:00 17.3 7 Sudoeste 18 Oeste 0 -- -- 81
2019-07-14 04:00:00 18.1 5 Oeste 12 Oeste 0 -- -- 79
2019-07-14 03:00:00 18 5 Noroeste 14 Sudoeste 0 -- -- 80
2019-07-14 02:00:00 18.2 5 Oeste 10 Noroeste 0 -- -- 80
2019-07-14 01:00:00 18.3 8 Sudoeste 13 Sudoeste 0 -- -- 84
2019-07-14 00:00:00 18.9 9 Sudoeste 17 Sudoeste 0 -- -- 84
2019-07-13 23:00:00 19.2 4 Oeste 18 Oeste 0 -- -- 82
2019-07-13 22:00:00 19.4 13 Oeste 44 Oeste 0 -- -- 78
2019-07-13 21:00:00 27.1 14 Noroeste 32 Sudoeste 0 -- -- 46
2019-07-13 20:00:00 28.3 7 Sudoeste 23 Sudoeste 0 -- -- 39
2019-07-13 19:00:00 28.6 10 Sudoeste 28 Sudoeste 0 -- -- 33
2019-07-13 18:00:00 29.9 12 Oeste 25 Sudoeste 0 -- -- 33
2019-07-13 17:00:00 30.5 11 Oeste 32 Sur 0 -- -- 35
2019-07-13 16:00:00 29 12 Sudoeste 39 Noroeste 0 -- -- 39
2019-07-13 15:00:00 28.9 20 Oeste 32 Noroeste 0 -- -- 44
2019-07-13 14:00:00 30 10 Sudeste 31 Sudeste 0 -- -- 41
2019-07-13 13:00:00 28.7 15 Este 29 Este 0 -- -- 43
2019-07-13 12:00:00 27.3 10 Sur 25 Sudeste 0 -- -- 47
2019-07-13 11:00:00 26.7 13 Este 23 Este 0 -- -- 48
2019-07-13 10:00:00 24.6 9 Este 15 Este 0 -- -- 56
2019-07-13 09:00:00 19.3 0 Calma 6 Oeste 0 -- -- 70
2019-07-13 08:00:00 16.1 0 Calma 6 Noroeste 0 -- -- 77
2019-07-13 07:00:00 16.4 3 Noroeste 6 Oeste 0 -- -- 75
2019-07-13 06:00:00 16.9 0 Calma 7 Sudoeste 0 -- -- 73
2019-07-13 05:00:00 17.3 0 Calma 8 Sudeste 0 -- -- 71
2019-07-13 04:00:00 17.6 3 Este 9 Este 0 -- -- 70
2019-07-13 03:00:00 18.6 0 Calma 5 Noroeste 0 -- -- 67
2019-07-13 02:00:00 20.4 4 Noroeste 6 Oeste 0 -- -- 59
2019-07-13 01:00:00 22.3 4 Oeste 12 Oeste 0 -- -- 56
2019-07-13 00:00:00 23.1 2 Noroeste 8 Oeste 0 -- -- 54
2019-07-12 23:00:00 24.6 5 Oeste 9 Oeste 0 -- -- 53
2019-07-12 22:00:00 26.8 2 Noroeste 6 Norte 0 -- -- 50
2019-07-12 21:00:00 28.5 6 Oeste 9 Oeste 0 -- -- 44
2019-07-12 20:00:00 30.5 2 Sudoeste 10 Sudeste 0 -- -- 43
2019-07-12 19:00:00 32.4 0 Calma 13 Este 0 -- -- 36
2019-07-12 18:00:00 33.5 8 Este 11 Este 0 -- -- 32
2019-07-12 17:00:00 34.3 6 Sur 19 Sudeste 0 -- -- 29
2019-07-12 16:00:00 33.1 5 Norte 21 Oeste 0 -- -- 30
2019-07-12 15:00:00 35.4 7 Oeste 18 Sudeste 0 -- -- 26
2019-07-12 14:00:00 35.9 9 Sudeste 24 Este 0 -- -- 25
2019-07-12 13:00:00 34.6 11 Este 20 Este 0 -- -- 25
2019-07-12 12:00:00 31.8 4 Sudoeste 23 Este 0 -- -- 28
2019-07-12 11:00:00 29.7 12 Este 20 Este 0 -- -- 31
2019-07-12 10:00:00 24.5 4 Este 7 Sudeste 0 -- -- 42
2019-07-12 09:00:00 18.7 0 Calma 4 Norte 0 -- -- 59
2019-07-12 08:00:00 15.4 0 Calma 5 Norte 0 -- -- 66
2019-07-12 07:00:00 15.8 0 Calma 9 Norte 0 -- -- 61
2019-07-12 06:00:00 16.1 0 Calma 16 Este 0 -- -- 62
2019-07-12 05:00:00 16.7 3 Noroeste 5 Noroeste 0 -- -- 57
2019-07-12 04:00:00 17.7 3 Noroeste 8 Norte 0 -- -- 52
2019-07-12 03:00:00 18.1 3 Norte 6 Norte 0 -- -- 53
2019-07-12 02:00:00 19.4 3 Norte 6 Norte 0 -- -- 49
2019-07-12 01:00:00 20.7 3 Noroeste 6 Noroeste 0 -- -- 46
2019-07-12 00:00:00 22.9 5 Norte 8 Norte 0 -- -- 39
2019-07-11 23:00:00 25.5 4 Norte 8 Noroeste 0 -- -- 34
2019-07-11 22:00:00 29.5 2 Noroeste 9 Norte 0 -- -- 33
2019-07-11 21:00:00 34.8 6 Noroeste 22 Oeste 0 -- -- 21
2019-07-11 20:00:00 36.9 8 Sudoeste 26 Oeste 0 -- -- 19
2019-07-11 19:00:00 37.3 11 Oeste 24 Oeste 0 -- -- 20
2019-07-11 18:00:00 38 8 Sudoeste 20 Oeste 0 -- -- 19
2019-07-11 17:00:00 38 6 Sudeste 22 Oeste 0 -- -- 20
2019-07-11 16:00:00 37.3 12 Este 31 Sudeste 0 -- -- 19
2019-07-11 15:00:00 36.9 9 Este 23 Este 0 -- -- 20
2019-07-11 14:00:00 35.8 5 Nordeste 10 Norte 0 -- -- 22
2019-07-11 13:00:00 35 6 Este 15 Este 0 -- -- 21
2019-07-11 12:00:00 32.9 8 Este 17 Sudeste 0 -- -- 25
2019-07-11 11:00:00 29 5 Este 10 Este 0 -- -- 34
2019-07-11 10:00:00 24 5 Este 9 Este 0 -- -- 44
2019-07-11 09:00:00 17.5 0 Calma 4 Norte 0 -- -- 64
2019-07-11 08:00:00 12.8 0 Calma 4 Norte 0 -- -- 75
2019-07-11 07:00:00 13 0 Calma 3 Norte 0 -- -- 73
2019-07-11 06:00:00 13.8 0 Calma 4 Norte 0 -- -- 69
2019-07-11 05:00:00 14.7 2 Norte 5 Norte 0 -- -- 65
2019-07-11 04:00:00 16 3 Noroeste 8 Noroeste 0 -- -- 59
2019-07-11 03:00:00 17 4 Norte 8 Norte 0 -- -- 55
2019-07-11 02:00:00 17.3 3 Norte 6 Norte 0 -- -- 59
2019-07-11 01:00:00 19 4 Norte 6 Norte 0 -- -- 55
2019-07-11 00:00:00 20.4 3 Norte 6 Noroeste 0 -- -- 48
2019-07-10 23:00:00 23.5 4 Norte 8 Noroeste 0 -- -- 38
2019-07-10 22:00:00 27.2 0 Calma 8 Norte 0 -- -- 38
2019-07-10 21:00:00 31.8 5 Oeste 19 Sudeste 0 -- -- 25
2019-07-10 20:00:00 34 5 Este 18 Sudeste 0 -- -- 23
2019-07-10 19:00:00 34 9 Este 25 Este 0 -- -- 21
2019-07-10 18:00:00 34.3 7 Sur 26 Este 0 -- -- 21
2019-07-10 17:00:00 33.7 6 Este 23 Sur 0 -- -- 20
2019-07-10 16:00:00 32.5 13 Sudoeste 22 Norte 0 -- -- 19
2019-07-10 15:00:00 31.9 9 Oeste 17 Oeste 0 -- -- 18
2019-07-10 14:00:00 31.6 10 Este 21 Este 0 -- -- 17
2019-07-10 13:00:00 30.6 12 Este 22 Sudeste 0 -- -- 18
2019-07-10 12:00:00 28.7 9 Este 18 Este 0 -- -- 27
2019-07-10 11:00:00 26.4 6 Este 13 Este 0 -- -- 32
2019-07-10 10:00:00 20.8 4 Oeste 8 Oeste 0 -- -- 50
2019-07-10 09:00:00 16.4 0 Calma 4 Norte 0 -- -- 71
2019-07-10 08:00:00 12.3 0 Calma 4 Norte 0 -- -- 83
2019-07-10 07:00:00 12.6 0 Calma 4 Nordeste 0 -- -- 80
2019-07-10 06:00:00 13.4 0 Calma 6 Norte 0 -- -- 78
2019-07-10 05:00:00 14.5 3 Norte 9 Norte 0 -- -- 73
2019-07-10 04:00:00 16.3 4 Oeste 12 Noroeste 0 -- -- 66
2019-07-10 03:00:00 16.5 5 Noroeste 11 Norte 0 -- -- 64
2019-07-10 02:00:00 16.9 4 Noroeste 12 Norte 0 -- -- 62
2019-07-10 01:00:00 17.9 4 Noroeste 9 Oeste 0 -- -- 60
2019-07-10 00:00:00 19.3 4 Noroeste 8 Oeste 0 -- -- 57
2019-07-09 23:00:00 21.4 4 Noroeste 8 Oeste 0 -- -- 51
2019-07-09 22:00:00 24.4 0 Calma 21 Nordeste 0 -- -- 49
2019-07-09 21:00:00 27.5 6 Nordeste 23 Este 0 -- -- 34
2019-07-09 20:00:00 28.6 11 Nordeste 23 Este 0 -- -- 33
2019-07-09 19:00:00 28.9 9 Nordeste 26 Noroeste 0 -- -- 33
2019-07-09 18:00:00 28.9 12 Norte 28 Sudeste 0 -- -- 34
2019-07-09 17:00:00 28.9 10 Este 26 Sudeste 0 -- -- 36
2019-07-09 16:00:00 28.8 10 Nordeste 28 Este 0 -- -- 35
2019-07-09 15:00:00 28.5 14 Este 33 Este 0 -- -- 37
2019-07-09 14:00:00 27.8 14 Este 33 Sudeste 0 -- -- 40
2019-07-09 13:00:00 25.8 6 Este 19 Este 0 -- -- 48
2019-07-09 12:00:00 24.4 3 Nordeste 14 Oeste 0 -- -- 49
2019-07-09 11:00:00 22.6 4 Sudeste 12 Este 0 -- -- 56
2019-07-09 10:00:00 20.1 3 Este 12 Este 0 -- -- 66
2019-07-09 09:00:00 15.3 3 Norte 9 Norte 0 -- -- 85
2019-07-09 08:00:00 11.6 4 Norte 9 Norte 0 -- -- 92
2019-07-09 07:00:00 11.7 4 Norte 11 Norte 0 -- -- 90
2019-07-09 06:00:00 13.1 6 Oeste 14 Oeste 0 -- -- 84
2019-07-09 05:00:00 12.5 5 Noroeste 16 Sudoeste 0 -- -- 88
2019-07-09 04:00:00 11.9 6 Norte 10 Norte 0 -- -- 91
2019-07-09 03:00:00 12.1 4 Noroeste 9 Norte 0 -- -- 92
2019-07-09 02:00:00 13 6 Oeste 10 Sudoeste 0 -- -- 90
2019-07-09 01:00:00 13 4 Oeste 8 Oeste 0 -- -- 91
2019-07-09 00:00:00 13.5 3 Oeste 8 Oeste 0.2 -- -- 89
2019-07-08 23:00:00 14.7 2 Noroeste 14 Noroeste 0 -- -- 86
2019-07-08 22:00:00 15.7 3 Este 33 Oeste 0.2 -- -- 83
2019-07-08 21:00:00 16.1 26 Sudoeste 52 Oeste 1 -- -- 75
2019-07-08 20:00:00 20.2 19 Oeste 37 Noroeste 0 -- -- 57
2019-07-08 19:00:00 23.2 7 Sudeste 18 Este 0 -- -- 41
2019-07-08 18:00:00 24.2 15 Sudeste 32 Este 0 -- -- 37
2019-07-08 17:00:00 26.5 7 Oeste 26 Oeste 0 -- -- 32
2019-07-08 16:00:00 27.4 13 Oeste 31 Oeste 0 -- -- 30
2019-07-08 15:00:00 26.5 14 Oeste 28 Oeste 0 -- -- 34
2019-07-08 14:00:00 26 8 Sudoeste 24 Oeste 0 -- -- 34
2019-07-08 13:00:00 25.6 9 Sur 22 Sudoeste 0 -- -- 40
2019-07-08 12:00:00 24.1 12 Oeste 24 Este 0 -- -- 41
2019-07-08 11:00:00 23.1 11 Este 20 Este 0 -- -- 52
2019-07-08 10:00:00 21.2 8 Este 14 Este 0 -- -- 61
2019-07-08 09:00:00 16.8 0 Calma 4 Sudeste 0 -- -- 76
2019-07-08 08:00:00 12.5 0 Calma 5 Norte 0 -- -- 88
2019-07-08 07:00:00 12.7 0 Calma 4 Sudeste 0 -- -- 84
2019-07-08 06:00:00 14 2 Norte 5 Norte 0 -- -- 80
2019-07-08 05:00:00 15.2 0 Calma 7 Norte 0 -- -- 76
2019-07-08 04:00:00 16.7 4 Norte 12 Sur 0 -- -- 72
2019-07-08 03:00:00 18.6 4 Oeste 15 Sudoeste 0 -- -- 68
2019-07-08 02:00:00 19.6 9 Sudoeste 20 Sudoeste 0 -- -- 65
2019-07-08 01:00:00 20.6 12 Sudoeste 26 Oeste 0 -- -- 62
2019-07-08 00:00:00 21.4 11 Oeste 35 Oeste 0 -- -- 59
2019-07-07 23:00:00 22.9 12 Oeste 35 Oeste 0 -- -- 52
2019-07-07 22:00:00 24.1 4 Norte 12 Oeste 0 -- -- 36
2019-07-07 21:00:00 27.7 8 Oeste 17 Sudoeste 0 -- -- 29
2019-07-07 20:00:00 28.8 9 Sudoeste 22 Sudoeste 0 -- -- 28
2019-07-07 19:00:00 29.9 12 Oeste 25 Oeste 0 -- -- 27
2019-07-07 18:00:00 30.3 8 Oeste 32 Oeste 0 -- -- 26
2019-07-07 17:00:00 29.3 13 Oeste 37 Oeste 0 -- -- 30
2019-07-07 16:00:00 29.1 9 Oeste 33 Oeste 0 -- -- 29
2019-07-07 15:00:00 28.3 8 Sur 37 Oeste 0 -- -- 30
2019-07-07 14:00:00 26.9 12 Oeste 35 Oeste 0 -- -- 30
2019-07-07 13:00:00 26.5 10 Oeste 30 Este 0 -- -- 34
2019-07-07 12:00:00 25.5 12 Este 26 Este 0 -- -- 40
2019-07-07 11:00:00 24.2 13 Este 23 Este 0 -- -- 46
2019-07-07 10:00:00 21.2 3 Este 6 Este 0 -- -- 59
2019-07-07 09:00:00 16.4 0 Calma 5 Norte 0 -- -- 77
2019-07-07 08:00:00 12.1 0 Calma 5 Norte 0 -- -- 88
2019-07-07 07:00:00 12.8 3 Noroeste 5 Norte 0 -- -- 85
2019-07-07 06:00:00 13.6 2 Norte 6 Norte 0 -- -- 82
2019-07-07 05:00:00 15 4 Norte 8 Norte 0 -- -- 78
2019-07-07 04:00:00 17.2 4 Noroeste 21 Sudoeste 0 -- -- 71
2019-07-07 03:00:00 19 14 Sudoeste 23 Sudoeste 0 -- -- 68
2019-07-07 02:00:00 20 7 Oeste 33 Oeste 0 -- -- 66
2019-07-07 01:00:00 21.5 19 Oeste 33 Oeste 0 -- -- 61
2019-07-07 00:00:00 20.4 8 Noroeste 23 Noroeste 0 -- -- 60
2019-07-06 23:00:00 20.7 3 Norte 7 Norte 0 -- -- 43
2019-07-06 22:00:00 23.7 4 Norte 10 Sudoeste 0 -- -- 37
2019-07-06 21:00:00 27.9 8 Oeste 21 Sudoeste 0 -- -- 30
2019-07-06 20:00:00 29.7 11 Oeste 23 Oeste 0 -- -- 28
2019-07-06 19:00:00 30.5 6 Oeste 22 Sur 0 -- -- 26
2019-07-06 18:00:00 29.8 8 Oeste 39 Oeste 0 -- -- 25
2019-07-06 17:00:00 29.4 13 Sudoeste 33 Oeste 0 -- -- 28
2019-07-06 16:00:00 29.4 11 Sudoeste 33 Oeste 0 -- -- 29
2019-07-06 15:00:00 28.4 13 Sudoeste 37 Oeste 0 -- -- 30
2019-07-06 14:00:00 27.7 10 Sudoeste 26 Sudoeste 0 -- -- 32
2019-07-06 13:00:00 27.2 8 Sudeste 33 Oeste 0 -- -- 34
2019-07-06 12:00:00 26.1 10 Sudoeste 21 Este 0 -- -- 37
2019-07-06 11:00:00 24.4 11 Este 17 Este 0 -- -- 43
2019-07-06 10:00:00 21.3 5 Este 8 Este 0 -- -- 51
2019-07-06 09:00:00 15.5 0 Calma 3 Norte 0 -- -- 70
2019-07-06 08:00:00 10.6 0 Calma 3 Norte 0 -- -- 84
2019-07-06 07:00:00 11 2 Norte 4 Norte 0 -- -- 80
2019-07-06 06:00:00 11.7 2 Norte 3 Norte 0 -- -- 76
2019-07-06 05:00:00 13 2 Nordeste 8 Norte 0 -- -- 72
2019-07-06 04:00:00 14.5 4 Norte 6 Norte 0 -- -- 66
2019-07-06 03:00:00 15.2 4 Norte 8 Norte 0 -- -- 62
2019-07-06 02:00:00 16.1 4 Norte 9 Norte 0 -- -- 58
2019-07-06 01:00:00 17.4 4 Norte 9 Noroeste 0 -- -- 54
2019-07-06 00:00:00 19 5 Norte 8 Norte 0 -- -- 49
2019-07-05 23:00:00 20.9 3 Noroeste 6 Norte 0 -- -- 43
2019-07-05 22:00:00 24.2 4 Norte 17 Sur 0 -- -- 37
2019-07-05 21:00:00 28.1 7 Sudoeste 22 Oeste 0 -- -- 29
2019-07-05 20:00:00 29.3 14 Oeste 29 Oeste 0 -- -- 26
2019-07-05 19:00:00 29.5 9 Sudoeste 32 Sudoeste 0 -- -- 28
2019-07-05 18:00:00 28.9 21 Oeste 45 Oeste 0 -- -- 30
2019-07-05 17:00:00 29.1 13 Oeste 33 Oeste 0 -- -- 31
2019-07-05 16:00:00 28 17 Oeste 35 Sudoeste 0 -- -- 34
2019-07-05 15:00:00 28.2 7 Sur 35 Este 0 -- -- 33
2019-07-05 14:00:00 27.1 17 Este 33 Sudeste 0 -- -- 36
2019-07-05 13:00:00 26.3 17 Este 32 Este 0 -- -- 38
2019-07-05 12:00:00 25.4 10 Sudeste 32 Este 0 -- -- 44
2019-07-05 11:00:00 23.7 8 Este 19 Este 0 -- -- 49
2019-07-05 10:00:00 20 6 Este 10 Este 0 -- -- 58
2019-07-05 09:00:00 14.3 0 Calma 3 Nordeste 0 -- -- 74
2019-07-05 08:00:00 10.2 0 Calma 3 Sudeste 0 -- -- 86
2019-07-05 07:00:00 10.3 2 Este 3 Este 0 -- -- 84
2019-07-05 06:00:00 11.1 2 Noroeste 3 Norte 0 -- -- 83
2019-07-05 05:00:00 11.8 0 Calma 4 Norte 0 -- -- 79
2019-07-05 04:00:00 12.9 2 Norte 5 Noroeste 0 -- -- 76
2019-07-05 03:00:00 14.1 3 Norte 5 Norte 0 -- -- 69
2019-07-05 02:00:00 15.1 3 Noroeste 5 Norte 0 -- -- 67
2019-07-05 01:00:00 16.8 3 Norte 6 Noroeste 0 -- -- 62
2019-07-05 00:00:00 18.9 3 Noroeste 5 Norte 0 -- -- 57
2019-07-04 23:00:00 21.2 2 Norte 5 Norte 0 -- -- 53
2019-07-04 22:00:00 24.9 3 Norte 18 Oeste 0 -- -- 43
2019-07-04 21:00:00 26.3 8 Sudoeste 24 Sudoeste 0 -- -- 39
2019-07-04 20:00:00 27.7 14 Oeste 31 Oeste 0 -- -- 36
2019-07-04 19:00:00 29.3 12 Este 31 Este 0 -- -- 35
2019-07-04 18:00:00 28.4 13 Sudeste 30 Sudeste 0 -- -- 39
2019-07-04 17:00:00 29.2 12 Este 31 Este 0 -- -- 40
2019-07-04 16:00:00 28 11 Este 48 Este 0 -- -- 42
2019-07-04 15:00:00 26.8 15 Sur 36 Este 0 -- -- 42
2019-07-04 14:00:00 27.2 13 Este 37 Este 0 -- -- 43
2019-07-04 13:00:00 26.8 10 Este 28 Este 0 -- -- 43
2019-07-04 12:00:00 24.9 13 Este 28 Este 0 -- -- 49
2019-07-04 11:00:00 23.6 8 Este 19 Este 0 -- -- 54
2019-07-04 10:00:00 19.1 2 Este 5 Este 0 -- -- 60
2019-07-04 09:00:00 15.9 0 Calma 3 Norte 0 -- -- 68
2019-07-04 08:00:00 11.8 0 Calma 5 Norte 0 -- -- 82
2019-07-04 07:00:00 11.6 0 Calma 5 Este 0 -- -- 81
2019-07-04 06:00:00 12.3 0 Calma 4 Nordeste 0 -- -- 79
2019-07-04 05:00:00 12.8 0 Calma 4 Este 0 -- -- 77
2019-07-04 04:00:00 14.1 0 Calma 5 Norte 0 -- -- 72
2019-07-04 03:00:00 15.4 0 Calma 5 Norte 0 -- -- 68
2019-07-04 02:00:00 17.1 0 Calma 5 Oeste 0 -- -- 63
2019-07-04 01:00:00 18.9 3 Norte 5 Norte 0 -- -- 59
2019-07-04 00:00:00 20.8 3 Noroeste 5 Norte 0 -- -- 52
2019-07-03 23:00:00 23.4 2 Noroeste 5 Norte 0 -- -- 47
2019-07-03 22:00:00 26.2 0 Calma 8 Oeste 0 -- -- 44
2019-07-03 21:00:00 28.3 5 Oeste 12 Oeste 0 -- -- 36
2019-07-03 20:00:00 29.8 4 Oeste 18 Sudoeste 0 -- -- 32
2019-07-03 19:00:00 30.6 8 Oeste 20 Oeste 0 -- -- 33
2019-07-03 18:00:00 32.2 6 Sudoeste 20 Este 0 -- -- 30
2019-07-03 17:00:00 31.3 7 Sudeste 34 Oeste 0 -- -- 30
2019-07-03 16:00:00 30.9 10 Norte 26 Oeste 0 -- -- 31
2019-07-03 15:00:00 31.2 5 Noroeste 29 Sudeste 0 -- -- 30
2019-07-03 14:00:00 30.6 13 Este 35 Este 0 -- -- 28
2019-07-03 13:00:00 29.4 9 Sudeste 30 Este 0 -- -- 30
2019-07-03 12:00:00 28.3 16 Este 28 Este 0 -- -- 34
2019-07-03 11:00:00 26.4 5 Este 11 Sudeste 0 -- -- 35
2019-07-03 10:00:00 20.8 0 Calma 8 Sudeste 0 -- -- 44
2019-07-03 09:00:00 15.7 0 Calma 6 Este 0 -- -- 61
2019-07-03 08:00:00 11.3 0 Calma 5 Norte 0 -- -- 73
2019-07-03 07:00:00 11.2 3 Norte 5 Norte 0 -- -- 72
2019-07-03 06:00:00 11.5 2 Norte 4 Norte 0 -- -- 69
2019-07-03 05:00:00 12.1 0 Calma 5 Norte 0 -- -- 67
2019-07-03 04:00:00 12.8 0 Calma 4 Noroeste 0 -- -- 62
2019-07-03 03:00:00 13.9 0 Calma 5 Norte 0 -- -- 58
2019-07-03 02:00:00 15 2 Noroeste 5 Norte 0 -- -- 53
2019-07-03 01:00:00 16.6 3 Noroeste 8 Norte 0 -- -- 48
2019-07-03 00:00:00 18.7 3 Noroeste 8 Norte 0 -- -- 42
2019-07-02 23:00:00 21.2 3 Norte 6 Noroeste 0 -- -- 37
2019-07-02 22:00:00 24.8 4 Norte 9 Norte 0 -- -- 31
2019-07-02 21:00:00 30.1 5 Oeste 17 Oeste 0 -- -- 24
2019-07-02 20:00:00 32.2 5 Sur 25 Sudoeste 0 -- -- 22
2019-07-02 19:00:00 32.3 13 Oeste 36 Oeste 0 -- -- 22
2019-07-02 18:00:00 31.7 11 Oeste 42 Oeste 0 -- -- 23
2019-07-02 17:00:00 31.5 15 Oeste 41 Sudoeste 0 -- -- 25
2019-07-02 16:00:00 32.3 8 Sudeste 28 Oeste 0 -- -- 27
2019-07-02 15:00:00 31.3 10 Oeste 26 Oeste 0 -- -- 24
2019-07-02 14:00:00 30.3 13 Oeste 28 Sudeste 0 -- -- 29
2019-07-02 13:00:00 30.1 10 Sudeste 25 Este 0 -- -- 31
2019-07-02 12:00:00 28 6 Este 18 Este 0 -- -- 37
2019-07-02 11:00:00 25.3 9 Este 13 Este 0 -- -- 48
2019-07-02 10:00:00 22.9 6 Este 14 Sudeste 0 -- -- 57
2019-07-02 09:00:00 18.5 0 Calma 5 Norte 0 -- -- 73
2019-07-02 08:00:00 14.6 0 Calma 5 Este 0 -- -- 82
2019-07-02 07:00:00 15.4 2 Norte 6 Norte 0 -- -- 78
2019-07-02 06:00:00 16.6 3 Norte 5 Norte 0 -- -- 74
2019-07-02 05:00:00 18 3 Nordeste 16 Sudoeste 0 -- -- 69
2019-07-02 04:00:00 21.4 11 Oeste 18 Sudoeste 0 -- -- 62
2019-07-02 03:00:00 21.8 5 Noroeste 16 Sur 0 -- -- 58
2019-07-02 02:00:00 23.3 10 Oeste 17 Oeste 0 -- -- 55
2019-07-02 01:00:00 23.2 8 Oeste 15 Sudoeste 0 -- -- 52
2019-07-02 00:00:00 22.3 8 Oeste 13 Oeste 0 -- -- 47
2019-07-01 23:00:00 22.9 5 Noroeste 9 Norte 0 -- -- 39
2019-07-01 22:00:00 26 4 Noroeste 11 Norte 0 -- -- 29
2019-07-01 21:00:00 30.7 7 Noroeste 16 Sudoeste 0 -- -- 22
2019-07-01 20:00:00 32.9 8 Oeste 21 Sudoeste 0 -- -- 18
2019-07-01 19:00:00 33.4 9 Oeste 21 Oeste 0 -- -- 17
2019-07-01 18:00:00 33.7 5 Sudoeste 24 Oeste 0 -- -- 20
2019-07-01 17:00:00 32.6 8 Sudoeste 23 Oeste 0 -- -- 25
2019-07-01 16:00:00 32.8 8 Este 26 Oeste 0 -- -- 30
2019-07-01 15:00:00 32.1 9 Sudeste 19 Sudoeste 0 -- -- 23
2019-07-01 14:00:00 30.2 12 Este 28 Este 0 -- -- 31
2019-07-01 13:00:00 29.4 13 Este 25 Sudeste 0 -- -- 35
2019-07-01 12:00:00 27.2 4 Este 14 Sudoeste 0 -- -- 49
2019-07-01 11:00:00 23 10 Sudoeste 20 Sudoeste 0 -- -- 61
2019-07-01 10:00:00 21.1 13 Sudoeste 23 Sudoeste 0 -- -- 66
2019-07-01 09:00:00 19.1 11 Sudoeste 19 Sudoeste 0 -- -- 73
2019-07-01 08:00:00 15.4 4 Norte 9 Norte 0 -- -- 84
2019-07-01 07:00:00 15.5 4 Norte 8 Norte 0 -- -- 83
2019-07-01 06:00:00 16.2 3 Norte 6 Norte 0 -- -- 80
2019-07-01 05:00:00 17.2 4 Norte 6 Norte 0 -- -- 76
2019-07-01 04:00:00 19 3 Norte 17 Oeste 0 -- -- 70
2019-07-01 03:00:00 21.3 11 Sudoeste 26 Oeste 0 -- -- 65
2019-07-01 02:00:00 22 13 Sudoeste 25 Sudoeste 0 -- -- 63
2019-07-01 01:00:00 23.3 16 Sudoeste 28 Sudoeste 0 -- -- 58
2019-07-01 00:00:00 24.4 12 Oeste 25 Oeste 0 -- -- 53
2019-06-30 23:00:00 26.3 12 Oeste 28 Oeste 0 -- -- 48
2019-06-30 22:00:00 29 9 Oeste 24 Noroeste 0 -- -- 42
2019-06-30 21:00:00 31.7 8 Oeste 19 Oeste 0 -- -- 31
2019-06-30 20:00:00 33.8 7 Sur 23 Oeste 0 -- -- 29
2019-06-30 19:00:00 34.7 5 Sudeste 31 Oeste 0 -- -- 28
2019-06-30 18:00:00 34.2 10 Este 27 Sudoeste 0 -- -- 31
2019-06-30 17:00:00 34.3 7 Sur 31 Sudeste 0 -- -- 25
2019-06-30 16:00:00 33.6 13 Oeste 23 Oeste 0 -- -- 27
2019-06-30 15:00:00 32.9 10 Sur 36 Sudeste 0 -- -- 32
2019-06-30 14:00:00 31.4 14 Sur 36 Sudoeste 0 -- -- 35
2019-06-30 13:00:00 31.8 7 Noroeste 22 Este 0 -- -- 35
2019-06-30 12:00:00 30.9 14 Este 30 Este 0 -- -- 36
2019-06-30 11:00:00 28.6 12 Este 21 Este 0 -- -- 48
2019-06-30 10:00:00 25.9 5 Este 11 Este 0 -- -- 57
2019-06-30 09:00:00 21.2 0 Calma 6 Este 0 -- -- 71
2019-06-30 08:00:00 18 2 Norte 5 Noroeste 0 -- -- 80
2019-06-30 07:00:00 18.1 3 Noroeste 4 Noroeste 0 -- -- 79
2019-06-30 06:00:00 19.2 0 Calma 9 Norte 0 -- -- 75
2019-06-30 05:00:00 20.2 5 Norte 11 Norte 0 -- -- 72
2019-06-30 04:00:00 21.2 7 Norte 14 Sudoeste 0 -- -- 68
2019-06-30 03:00:00 23.9 6 Oeste 24 Sudoeste 0 -- -- 59
2019-06-30 02:00:00 25.6 10 Sudoeste 26 Sudoeste 0 -- -- 57
2019-06-30 01:00:00 26.6 13 Sudoeste 26 Sudoeste 0 -- -- 53
2019-06-30 00:00:00 27.8 17 Oeste 38 Oeste 0 -- -- 50
2019-06-29 23:00:00 29.7 14 Oeste 27 Oeste 0 -- -- 42
2019-06-29 22:00:00 29.3 5 Noroeste 7 Oeste 0 -- -- 38
2019-06-29 21:00:00 34 3 Noroeste 15 Noroeste 0 -- -- 30
2019-06-29 20:00:00 36.6 5 Sudoeste 21 Oeste 0 -- -- 23
2019-06-29 19:00:00 36.4 12 Sudoeste 23 Sudoeste 0 -- -- 24
2019-06-29 18:00:00 36.8 6 Sudeste 21 Sudoeste 0 -- -- 25
2019-06-29 17:00:00 36.5 6 Sudoeste 23 Oeste 0 -- -- 23
2019-06-29 16:00:00 35.7 14 Oeste 24 Oeste 0 -- -- 24
2019-06-29 15:00:00 35.8 10 Este 25 Sudeste 0 -- -- 26
2019-06-29 14:00:00 34 17 Este 27 Este 0 -- -- 29
2019-06-29 13:00:00 33.6 8 Este 19 Este 0 -- -- 32
2019-06-29 12:00:00 32.1 6 Sudeste 19 Este 0 -- -- 36
2019-06-29 11:00:00 28.4 2 Oeste 8 Este 0 -- -- 46
2019-06-29 10:00:00 25.4 0 Calma 8 Este 0 -- -- 54
2019-06-29 09:00:00 20.2 2 Este 6 Norte 0 -- -- 71
2019-06-29 08:00:00 16.3 0 Calma 5 Noroeste 0 -- -- 81
2019-06-29 07:00:00 16.8 3 Norte 5 Norte 0 -- -- 77
2019-06-29 06:00:00 17.7 0 Calma 6 Norte 0 -- -- 72
2019-06-29 05:00:00 18.9 5 Norte 10 Norte 0 -- -- 69
2019-06-29 04:00:00 19.9 5 Norte 14 Norte 0 -- -- 64
2019-06-29 03:00:00 21.8 7 Norte 29 Oeste 0 -- -- 58
2019-06-29 02:00:00 25.4 16 Sudoeste 27 Sudoeste 0 -- -- 53
2019-06-29 01:00:00 26.3 14 Sudoeste 26 Oeste 0 -- -- 50
2019-06-29 00:00:00 24.9 6 Oeste 17 Sudoeste 0 -- -- 44
2019-06-28 23:00:00 25.6 3 Noroeste 6 Norte 0 -- -- 43
2019-06-28 22:00:00 29.3 3 Noroeste 8 Norte 0 -- -- 38
2019-06-28 21:00:00 34.6 3 Noroeste 13 Oeste 0 -- -- 29
2019-06-28 20:00:00 36.9 8 Oeste 32 Sudoeste 0 -- -- 24
2019-06-28 19:00:00 37.3 12 Este 32 Este 0 -- -- 24
2019-06-28 18:00:00 37.2 14 Este 36 Este 0 -- -- 23
2019-06-28 17:00:00 37.1 7 Nordeste 27 Sudeste 0 -- -- 23
2019-06-28 16:00:00 36 13 Este 31 Este 0 -- -- 27
2019-06-28 15:00:00 35.3 7 Este 27 Este 0 -- -- 28
2019-06-28 14:00:00 33.9 10 Este 22 Este 0 -- -- 34
2019-06-28 13:00:00 32.1 9 Este 16 Sudeste 0 -- -- 37
2019-06-28 12:00:00 29.9 5 Este 11 Este 0 -- -- 42
2019-06-28 11:00:00 27.1 5 Este 12 Este 0 -- -- 50
2019-06-28 10:00:00 23.6 0 Calma 5 Sudeste 0 -- -- 60
2019-06-28 09:00:00 18.9 0 Calma 5 Norte 0 -- -- 76
2019-06-28 08:00:00 15.6 3 Norte 5 Norte 0 -- -- 85
2019-06-28 07:00:00 15.5 3 Norte 7 Norte 0 -- -- 83
2019-06-28 06:00:00 16.2 3 Norte 8 Norte 0 -- -- 80
2019-06-28 05:00:00 16.9 4 Norte 11 Norte 0 -- -- 77
2019-06-28 04:00:00 17.7 5 Norte 11 Noroeste 0 -- -- 74
2019-06-28 03:00:00 19.4 6 Noroeste 16 Sudoeste 0 -- -- 68
2019-06-28 02:00:00 21.1 5 Oeste 23 Oeste 0 -- -- 62
2019-06-28 01:00:00 22.7 11 Sudoeste 22 Sudoeste 0 -- -- 58
2019-06-28 00:00:00 20.9 4 Norte 9 Noroeste 0 -- -- 65
2019-06-27 23:00:00 22.9 3 Noroeste 5 Norte 0 -- -- 60
2019-06-27 22:00:00 25.8 2 Noroeste 11 Sudoeste 0 -- -- 54
2019-06-27 21:00:00 28.5 6 Oeste 20 Sudoeste 0 -- -- 45
2019-06-27 20:00:00 29.9 12 Oeste 22 Oeste 0 -- -- 41
2019-06-27 19:00:00 30.3 12 Oeste 29 Oeste 0 -- -- 41
2019-06-27 18:00:00 30.3 11 Oeste 30 Oeste 0 -- -- 42
2019-06-27 17:00:00 31.3 13 Sudoeste 34 Este 0 -- -- 39
2019-06-27 16:00:00 30.5 13 Este 41 Oeste 0 -- -- 39
2019-06-27 15:00:00 30.1 8 Sudeste 29 Oeste 0 -- -- 41
2019-06-27 14:00:00 29.5 6 Este 35 Sudeste 0 -- -- 43
2019-06-27 13:00:00 28.2 8 Sur 28 Oeste 0 -- -- 44
2019-06-27 12:00:00 26.2 14 Oeste 30 Sudoeste 0 -- -- 47
2019-06-27 11:00:00 25.3 10 Sur 25 Oeste 0 -- -- 49
2019-06-27 10:00:00 21.9 5 Nordeste 10 Este 0 -- -- 59
2019-06-27 09:00:00 17.3 0 Calma 5 Sudeste 0 -- -- 77
2019-06-27 08:00:00 13.3 0 Calma 4 Norte 0 -- -- 89
2019-06-27 07:00:00 13 0 Calma 6 Noroeste 0 -- -- 87
2019-06-27 06:00:00 13.3 0 Calma 4 Este 0 -- -- 86
2019-06-27 05:00:00 13.7 0 Calma 4 Norte 0 -- -- 84
2019-06-27 04:00:00 14.4 2 Norte 4 Norte 0 -- -- 81
2019-06-27 03:00:00 15.2 3 Norte 5 Norte 0 -- -- 78
2019-06-27 02:00:00 16.6 3 Norte 6 Norte 0 -- -- 73
2019-06-27 01:00:00 17.6 3 Norte 5 Norte 0 -- -- 70
2019-06-27 00:00:00 19.3 3 Noroeste 5 Norte 0 -- -- 63
2019-06-26 23:00:00 21.4 3 Noroeste 5 Norte 0 -- -- 58
2019-06-26 22:00:00 24.6 3 Norte 16 Noroeste 0 -- -- 50
2019-06-26 21:00:00 28.1 9 Oeste 28 Este 0 -- -- 38
2019-06-26 20:00:00 29.6 10 Oeste 36 Oeste 0 -- -- 36
2019-06-26 19:00:00 29.2 7 Oeste 37 Sudoeste 0 -- -- 37
2019-06-26 18:00:00 29.3 13 Oeste 42 Oeste 0 -- -- 38
2019-06-26 17:00:00 28.4 19 Oeste 35 Sudoeste 0 -- -- 41
2019-06-26 16:00:00 27.8 8 Noroeste 35 Oeste 0 -- -- 45
2019-06-26 15:00:00 26.5 14 Oeste 31 Oeste 0 -- -- 49
2019-06-26 14:00:00 25.1 12 Oeste 28 Oeste 0 -- -- 54
2019-06-26 13:00:00 24.4 10 Sudoeste 27 Sudoeste 0 -- -- 56
2019-06-26 12:00:00 22.7 8 Oeste 25 Oeste 0 -- -- 61
2019-06-26 11:00:00 22.7 7 Sudoeste 24 Sudoeste 0 -- -- 60
2019-06-26 10:00:00 22 12 Este 24 Este 0 -- -- 64
2019-06-26 09:00:00 17 2 Norte 4 Norte 0 -- -- 84
2019-06-26 08:00:00 13.3 0 Calma 4 Norte 0 -- -- 93
2019-06-26 07:00:00 13.1 0 Calma 4 Este 0 -- -- 92
2019-06-26 06:00:00 13.8 0 Calma 4 Norte 0 -- -- 90
2019-06-26 05:00:00 14.5 0 Calma 6 Norte 0 -- -- 88
2019-06-26 04:00:00 15.5 3 Noroeste 7 Norte 0 -- -- 85
2019-06-26 03:00:00 16.6 4 Norte 7 Norte 0 -- -- 81
2019-06-26 02:00:00 17.5 5 Norte 8 Norte 0 -- -- 76
2019-06-26 01:00:00 18.5 5 Norte 8 Norte 0 -- -- 72
2019-06-26 00:00:00 20.1 3 Noroeste 6 Norte 0 -- -- 68
2019-06-25 23:00:00 22.6 4 Noroeste 6 Noroeste 0 -- -- 63
2019-06-25 22:00:00 25.4 2 Noroeste 4 Norte 0 -- -- 55
2019-06-25 21:00:00 27.8 0 Calma 8 Este 0 -- -- 51
2019-06-25 20:00:00 28.9 5 Este 14 Este 0 -- -- 40
2019-06-25 19:00:00 28.6 5 Este 16 Oeste 0 -- -- 40
2019-06-25 18:00:00 29.1 4 Sur 26 Este 0 -- -- 38
2019-06-25 17:00:00 29.1 9 Oeste 32 Noroeste 0 -- -- 39
2019-06-25 16:00:00 28.1 9 Oeste 29 Oeste 0 -- -- 40
2019-06-25 15:00:00 26.6 9 Oeste 32 Sudoeste 0 -- -- 46
2019-06-25 14:00:00 25.7 6 Noroeste 24 Oeste 0 -- -- 50
2019-06-25 13:00:00 25 5 Sur 21 Este 0 -- -- 52
2019-06-25 12:00:00 24.2 4 Este 16 Sudeste 0 -- -- 55
2019-06-25 11:00:00 21.2 6 Este 10 Este 0 -- -- 72
2019-06-25 10:00:00 17.1 5 Sudoeste 8 Sudoeste 0 -- -- 89
2019-06-25 09:00:00 15.2 0 Calma 5 Noroeste 0.2 -- -- 96
2019-06-25 08:00:00 14.2 2 Oeste 5 Oeste 0 -- -- 96
2019-06-25 07:00:00 13.6 0 Calma 6 Oeste 0 -- -- 95
2019-06-25 06:00:00 13.8 2 Noroeste 4 Norte 0 -- -- 95
2019-06-25 05:00:00 14 2 Noroeste 5 Norte 0 -- -- 95
2019-06-25 04:00:00 14.2 0 Calma 5 Norte 0 -- -- 95
2019-06-25 03:00:00 14.2 3 Norte 6 Norte 0 -- -- 95
2019-06-25 02:00:00 14.2 3 Norte 5 Norte 0 -- -- 93
2019-06-25 01:00:00 14.7 0 Calma 5 Norte 0 -- -- 93
2019-06-25 00:00:00 15.4 2 Norte 4 Oeste 0 -- -- 92
2019-06-24 23:00:00 16 2 Noroeste 4 Norte 0 -- -- 93
2019-06-24 22:00:00 15.9 0 Calma 14 Oeste 0 -- -- 92
2019-06-24 21:00:00 15.5 3 Sudeste 15 Oeste 1 -- -- 91
2019-06-24 20:00:00 15.5 0 Calma 11 Noroeste 2 -- -- 88
2019-06-24 19:00:00 17.3 8 Noroeste 23 Noroeste 0 -- -- 74
2019-06-24 18:00:00 18.8 13 Noroeste 30 Noroeste 0 -- -- 63
2019-06-24 17:00:00 19.1 10 Noroeste 32 Oeste 0 -- -- 61
2019-06-24 16:00:00 20.2 18 Oeste 40 Noroeste 0 -- -- 58
2019-06-24 15:00:00 20.2 18 Oeste 36 Oeste 0 -- -- 56
2019-06-24 14:00:00 20.1 10 Sudoeste 44 Oeste 0 -- -- 64
2019-06-24 13:00:00 24.4 13 Oeste 29 Oeste 0 -- -- 56
2019-06-24 12:00:00 24 11 Oeste 21 Oeste 0 -- -- 60
2019-06-24 11:00:00 23.1 8 Este 14 Este 0 -- -- 66
2019-06-24 10:00:00 20.7 4 Este 9 Este 0 -- -- 73
2019-06-24 09:00:00 18.1 0 Calma 4 Sudeste 0 -- -- 79
2019-06-24 08:00:00 17.3 0 Calma 3 Sudeste 0 -- -- 83
2019-06-24 07:00:00 17.1 4 Este 6 Sudeste 0 -- -- 82
2019-06-24 06:00:00 17.6 0 Calma 4 Este 0 -- -- 78
2019-06-24 05:00:00 17.8 0 Calma 4 Norte 0 -- -- 73
2019-06-24 04:00:00 18.2 2 Este 7 Sudeste 0 -- -- 71
2019-06-24 03:00:00 18.8 0 Calma 7 Nordeste 0 -- -- 68
2019-06-24 02:00:00 19.4 2 Este 8 Noroeste 0 -- -- 65
2019-06-24 01:00:00 20 3 Norte 9 Norte 0 -- -- 58
2019-06-24 00:00:00 20.7 4 Norte 6 Noroeste 0 -- -- 49
2019-06-23 23:00:00 22.1 3 Noroeste 4 Noroeste 0 -- -- 48
2019-06-23 22:00:00 24.7 2 Nordeste 11 Sudoeste 0 -- -- 43
2019-06-23 21:00:00 26.7 7 Oeste 17 Oeste 0 -- -- 35
2019-06-23 20:00:00 27.3 7 Oeste 26 Oeste 0 -- -- 26
2019-06-23 19:00:00 28 11 Oeste 28 Oeste 0 -- -- 24
2019-06-23 18:00:00 28.4 13 Oeste 26 Oeste 0 -- -- 25
2019-06-23 17:00:00 28.7 13 Oeste 36 Oeste 0 -- -- 26
2019-06-23 16:00:00 27.2 15 Oeste 33 Oeste 0 -- -- 28
2019-06-23 15:00:00 28 13 Sudoeste 40 Oeste 0 -- -- 28
2019-06-23 14:00:00 27.5 9 Sur 33 Noroeste 0 -- -- 31
2019-06-23 13:00:00 25.5 16 Oeste 35 Oeste 0 -- -- 32
2019-06-23 12:00:00 25.2 8 Norte 29 Sudeste 0 -- -- 29
2019-06-23 11:00:00 23.2 13 Este 23 Este 0 -- -- 35
2019-06-23 10:00:00 20.4 10 Este 15 Este 0 -- -- 38
2019-06-23 09:00:00 14.3 0 Calma 4 Este 0 -- -- 56
2019-06-23 08:00:00 9.7 0 Calma 5 Norte 0 -- -- 70
2019-06-23 07:00:00 9.7 0 Calma 4 Norte 0 -- -- 67
2019-06-23 06:00:00 10.2 0 Calma 4 Norte 0 -- -- 68
2019-06-23 05:00:00 11 0 Calma 5 Sudeste 0 -- -- 66
2019-06-23 04:00:00 12.1 0 Calma 4 Norte 0 -- -- 59
2019-06-23 03:00:00 13.3 3 Norte 6 Norte 0 -- -- 56
2019-06-23 02:00:00 13.8 2 Norte 5 Norte 0 -- -- 52
2019-06-23 01:00:00 15.3 2 Norte 5 Norte 0 -- -- 49
2019-06-23 00:00:00 17.3 3 Norte 8 Norte 0 -- -- 42
2019-06-22 23:00:00 20.2 3 Norte 10 Oeste 0 -- -- 34
2019-06-22 22:00:00 23.4 4 Noroeste 13 Sudoeste 0 -- -- 29
2019-06-22 21:00:00 28.5 9 Oeste 19 Oeste 0 -- -- 20
2019-06-22 20:00:00 29.6 10 Oeste 32 Oeste 0 -- -- 20
2019-06-22 19:00:00 29.7 18 Oeste 33 Oeste 0 -- -- 20
2019-06-22 18:00:00 30.2 9 Sur 38 Sudoeste 0 -- -- 21
2019-06-22 17:00:00 29.5 18 Oeste 36 Oeste 0 -- -- 23
2019-06-22 16:00:00 29.1 10 Sudoeste 39 Oeste 0 -- -- 26
2019-06-22 15:00:00 28.3 13 Sudoeste 37 Sudoeste 0 -- -- 30
2019-06-22 14:00:00 27.2 16 Sudoeste 34 Sudoeste 0 -- -- 32
2019-06-22 13:00:00 27.6 9 Este 24 Sudeste 0 -- -- 34
2019-06-22 12:00:00 26.7 6 Este 21 Este 0 -- -- 36
2019-06-22 11:00:00 24.2 6 Sudeste 12 Sudeste 0 -- -- 41
2019-06-22 10:00:00 20.5 4 Este 6 Este 0 -- -- 49
2019-06-22 09:00:00 15 0 Calma 4 Norte 0 -- -- 70
2019-06-22 08:00:00 10.9 0 Calma 5 Norte 0 -- -- 80
2019-06-22 07:00:00 11.1 3 Norte 8 Norte 0 -- -- 78
2019-06-22 06:00:00 11.2 2 Noroeste 5 Norte 0 -- -- 78
2019-06-22 05:00:00 12.4 4 Norte 7 Norte 0 -- -- 70
2019-06-22 04:00:00 12.6 3 Noroeste 8 Norte 0 -- -- 67
2019-06-22 03:00:00 13 4 Norte 8 Norte 0 -- -- 66
2019-06-22 02:00:00 13.3 3 Norte 7 Norte 0 -- -- 66
2019-06-22 01:00:00 14.9 3 Norte 6 Norte 0 -- -- 60
2019-06-22 00:00:00 16.8 4 Noroeste 8 Oeste 0 -- -- 53
2019-06-21 23:00:00 18.8 3 Noroeste 6 Oeste 0 -- -- 49
2019-06-21 22:00:00 22.3 0 Calma 5 Noroeste 0 -- -- 42
2019-06-21 21:00:00 26.6 2 Oeste 14 Norte 0 -- -- 33
2019-06-21 20:00:00 28.4 7 Noroeste 16 Oeste 0 -- -- 28
2019-06-21 19:00:00 28.3 8 Este 17 Sudeste 0 -- -- 29
2019-06-21 18:00:00 27.4 4 Sudeste 16 Nordeste 0 -- -- 32
2019-06-21 17:00:00 28.1 9 Sur 20 Este 0 -- -- 31
2019-06-21 16:00:00 27.2 7 Norte 18 Este 0 -- -- 34
2019-06-21 15:00:00 26.4 4 Este 19 Este 0 -- -- 38
2019-06-21 14:00:00 25.9 8 Sudeste 23 Sur 0 -- -- 38
2019-06-21 13:00:00 25.3 6 Nordeste 22 Sudeste 0 -- -- 40
2019-06-21 12:00:00 24.2 8 Este 25 Sudeste 0 -- -- 42
2019-06-21 11:00:00 20.9 11 Sudoeste 27 Oeste 0 -- -- 54
2019-06-21 10:00:00 18.6 17 Oeste 29 Oeste 0 -- -- 62
2019-06-21 09:00:00 17.2 10 Noroeste 26 Sudoeste 0 -- -- 69
2019-06-21 08:00:00 14.9 5 Oeste 25 Sudoeste 0 -- -- 77
2019-06-21 07:00:00 15.1 10 Sudoeste 26 Oeste 0 -- -- 77
2019-06-21 06:00:00 15.4 11 Oeste 24 Oeste 0 -- -- 76
2019-06-21 05:00:00 14.9 4 Oeste 15 Oeste 0 -- -- 75
2019-06-21 04:00:00 16.4 6 Oeste 23 Oeste 0 -- -- 71
2019-06-21 03:00:00 17 5 Oeste 19 Sudoeste 0 -- -- 67
2019-06-21 02:00:00 17.8 8 Oeste 27 Sudoeste 0 -- -- 65
2019-06-21 01:00:00 18.2 12 Sudoeste 30 Sudoeste 0 -- -- 64
2019-06-21 00:00:00 18.8 11 Sudoeste 31 Oeste 0 -- -- 64
2019-06-20 23:00:00 19.8 12 Oeste 28 Sudoeste 0 -- -- 61
2019-06-20 22:00:00 21.3 11 Oeste 29 Noroeste 0 -- -- 56
2019-06-20 21:00:00 22.6 11 Oeste 28 Oeste 0 -- -- 51
2019-06-20 20:00:00 25.1 12 Noroeste 31 Sur 0 -- -- 43
2019-06-20 19:00:00 26.4 8 Sur 26 Oeste 0 -- -- 35
2019-06-20 18:00:00 26.5 13 Oeste 24 Oeste 0 -- -- 36
2019-06-20 17:00:00 26.9 11 Sudoeste 25 Sudoeste 0 -- -- 36
2019-06-20 16:00:00 26.6 8 Sudoeste 28 Oeste 0 -- -- 38
2019-06-20 15:00:00 26 12 Sudoeste 27 Oeste 0 -- -- 40
2019-06-20 14:00:00 25.5 6 Sur 29 Sudoeste 0 -- -- 43
2019-06-20 13:00:00 23.4 10 Oeste 20 Sudoeste 0 -- -- 51
2019-06-20 12:00:00 22.9 5 Sudeste 15 Este 0 -- -- 50
2019-06-20 11:00:00 21.5 5 Este 9 Este 0 -- -- 53
2019-06-20 10:00:00 17.5 0 Calma 3 Noroeste 0 -- -- 74
2019-06-20 09:00:00 15.4 0 Calma 5 Este 0 -- -- 84
2019-06-20 08:00:00 13.5 0 Calma 5 Norte 0 -- -- 87
2019-06-20 07:00:00 13.1 3 Norte 5 Norte 0 -- -- 86
2019-06-20 06:00:00 13.4 3 Noroeste 5 Norte 0 -- -- 86
2019-06-20 05:00:00 14.1 5 Norte 9 Sudoeste 0 -- -- 82
2019-06-20 04:00:00 15.6 5 Oeste 14 Sudoeste 0 -- -- 79
2019-06-20 03:00:00 16.4 7 Oeste 14 Sudoeste 0 -- -- 76
2019-06-20 02:00:00 18 7 Oeste 21 Sudoeste 0 -- -- 70
2019-06-20 01:00:00 18.4 8 Oeste 22 Sudoeste 0 -- -- 68
2019-06-20 00:00:00 18.9 9 Oeste 20 Oeste 0 -- -- 67
2019-06-19 23:00:00 18.8 4 Oeste 10 Oeste 0 -- -- 64
2019-06-19 22:00:00 21.1 0 Calma 15 Oeste 0 -- -- 58
2019-06-19 21:00:00 23 4 Oeste 18 Sudoeste 0 -- -- 49
2019-06-19 20:00:00 24.7 8 Sur 23 Sudoeste 0 -- -- 43
2019-06-19 19:00:00 24.4 7 Sudoeste 27 Oeste 0 -- -- 45
2019-06-19 18:00:00 23.5 8 Sudoeste 28 Oeste 0 -- -- 47
2019-06-19 17:00:00 23.3 8 Sudoeste 29 Oeste 0 -- -- 47
2019-06-19 16:00:00 22.7 12 Sudoeste 31 Sudoeste 0 -- -- 51
2019-06-19 15:00:00 22.2 12 Sudoeste 28 Oeste 0 -- -- 49
2019-06-19 14:00:00 21.6 16 Oeste 33 Oeste 0 -- -- 53
2019-06-19 13:00:00 21.8 13 Oeste 26 Oeste 0 -- -- 52
2019-06-19 12:00:00 20.1 4 Sudeste 18 Oeste 0 -- -- 62
2019-06-19 11:00:00 18.7 6 Sur 14 Este 0 -- -- 71
2019-06-19 10:00:00 17.1 6 Este 11 Este 0 -- -- 87
2019-06-19 09:00:00 15.9 0 Calma 3 Norte 0 -- -- 90
2019-06-19 08:00:00 15.3 4 Oeste 6 Nordeste 0.2 -- -- 88
2019-06-19 07:00:00 14.4 3 Oeste 5 Oeste 0 -- -- 84
2019-06-19 06:00:00 13.4 0 Calma 4 Noroeste 0 -- -- 84
2019-06-19 05:00:00 12.7 0 Calma 4 Norte 0 -- -- 84
2019-06-19 04:00:00 12.4 0 Calma 3 Sur 0 -- -- 82
2019-06-19 03:00:00 13.4 0 Calma 5 Sudeste 0 -- -- 77
2019-06-19 02:00:00 15.4 3 Noroeste 8 Noroeste 0 -- -- 67
2019-06-19 01:00:00 18.7 5 Norte 19 Sudoeste 0 -- -- 56
2019-06-19 00:00:00 18.8 6 Oeste 15 Oeste 0 -- -- 58
2019-06-18 23:00:00 20 3 Noroeste 9 Oeste 0 -- -- 59
2019-06-18 22:00:00 21.5 3 Sur 14 Sudeste 0 -- -- 57
2019-06-18 21:00:00 22.8 3 Nordeste 15 Sudeste 0 -- -- 52
2019-06-18 20:00:00 24.1 5 Oeste 28 Oeste 0 -- -- 47
2019-06-18 19:00:00 24.3 6 Oeste 17 Sudoeste 0.2 -- -- 48
2019-06-18 18:00:00 22.4 5 Norte 14 Este 0 -- -- 58
2019-06-18 17:00:00 21.2 5 Sur 36 Sudoeste 0.2 -- -- 66
2019-06-18 16:00:00 22.8 6 Sudoeste 24 Sudeste 0 -- -- 52
2019-06-18 15:00:00 21.7 12 Sudeste 36 Oeste 0 -- -- 52
2019-06-18 14:00:00 21.9 18 Oeste 35 Oeste 0 -- -- 45
2019-06-18 13:00:00 21.8 19 Oeste 43 Oeste 0 -- -- 39
2019-06-18 12:00:00 21.7 10 Oeste 28 Oeste 0 -- -- 35
2019-06-18 11:00:00 21 8 Nordeste 22 Noroeste 0 -- -- 35
2019-06-18 10:00:00 19 5 Nordeste 13 Nordeste 0 -- -- 43
2019-06-18 09:00:00 13.1 2 Nordeste 5 Nordeste 0 -- -- 64
2019-06-18 08:00:00 7.2 2 Norte 4 Nordeste 0 -- -- 81
2019-06-18 07:00:00 7.4 0 Calma 7 Nordeste 0 -- -- 76
2019-06-18 06:00:00 7.9 2 Nordeste 5 Nordeste 0 -- -- 74
2019-06-18 05:00:00 8.6 2 Nordeste 6 Nordeste 0 -- -- 72
2019-06-18 04:00:00 9.5 2 Nordeste 5 Sudeste 0 -- -- 65
2019-06-18 03:00:00 11 2 Norte 6 Norte 0 -- -- 59
2019-06-18 02:00:00 12.9 3 Norte 6 Norte 0 -- -- 56
2019-06-18 01:00:00 15.3 3 Noroeste 8 Norte 0 -- -- 45
2019-06-18 00:00:00 18 2 Noroeste 5 Norte 0 -- -- 41
2019-06-17 23:00:00 20.1 2 Noroeste 6 Noroeste 0 -- -- 37
2019-06-17 22:00:00 22.9 2 Norte 4 Norte 0 -- -- 36
2019-06-17 21:00:00 26 5 Oeste 14 Oeste 0 -- -- 22
2019-06-17 20:00:00 26.9 5 Oeste 17 Oeste 0 -- -- 21
2019-06-17 19:00:00 27.7 8 Sudoeste 22 Oeste 0 -- -- 18
2019-06-17 18:00:00 27.4 6 Sudoeste 33 Oeste 0 -- -- 18
2019-06-17 17:00:00 28.1 15 Oeste 33 Oeste 0 -- -- 20
2019-06-17 16:00:00 28.2 13 Oeste 35 Sudoeste 0 -- -- 25
2019-06-17 15:00:00 26.6 13 Oeste 34 Oeste 0 -- -- 28
2019-06-17 14:00:00 26.9 14 Este 34 Oeste 0 -- -- 27
2019-06-17 13:00:00 26.5 9 Sudeste 32 Sudeste 0 -- -- 31
2019-06-17 12:00:00 25 7 Sudeste 18 Sudeste 0 -- -- 36
2019-06-17 11:00:00 23 12 Este 19 Sudeste 0 -- -- 39
2019-06-17 10:00:00 18.9 5 Este 9 Este 0 -- -- 54
2019-06-17 09:00:00 13.6 0 Calma 4 Norte 0 -- -- 74
2019-06-17 08:00:00 8.4 0 Calma 3 Sudeste 0 -- -- 88
2019-06-17 07:00:00 8.6 0 Calma 4 Norte 0 -- -- 85
2019-06-17 06:00:00 9.5 2 Noroeste 4 Norte 0 -- -- 82
2019-06-17 05:00:00 10.6 0 Calma 4 Norte 0 -- -- 79
2019-06-17 04:00:00 12.1 2 Noroeste 5 Norte 0 -- -- 73
2019-06-17 03:00:00 13.5 3 Norte 6 Noroeste 0 -- -- 69
2019-06-17 02:00:00 15.4 5 Norte 12 Oeste 0 -- -- 61
2019-06-17 01:00:00 16 3 Noroeste 8 Sudoeste 0 -- -- 56
2019-06-17 00:00:00 15.6 4 Noroeste 9 Este 0 -- -- 49
2019-06-16 23:00:00 17.6 2 Noroeste 6 Noroeste 0 -- -- 50
2019-06-16 22:00:00 21.3 3 Noroeste 8 Norte 0 -- -- 38
2019-06-16 21:00:00 26.2 2 Noroeste 17 Sudeste 0 -- -- 30
2019-06-16 20:00:00 28.8 6 Oeste 25 Oeste 0 -- -- 23
2019-06-16 19:00:00 28.5 9 Oeste 29 Sudoeste 0 -- -- 22
2019-06-16 18:00:00 28.6 10 Oeste 29 Sudoeste 0 -- -- 22
2019-06-16 17:00:00 27.6 13 Oeste 23 Sudoeste 0 -- -- 23
2019-06-16 16:00:00 27 10 Sudeste 26 Sudoeste 0 -- -- 22
2019-06-16 15:00:00 26.3 7 Sudoeste 30 Sur 0 -- -- 27
2019-06-16 14:00:00 25.4 7 Sudoeste 21 Oeste 0 -- -- 28
2019-06-16 13:00:00 25.6 8 Sudeste 22 Sudeste 0 -- -- 29
2019-06-16 12:00:00 24.6 8 Este 24 Este 0 -- -- 29
2019-06-16 11:00:00 22.6 4 Este 10 Sudeste 0 -- -- 36
2019-06-16 10:00:00 18.3 0 Calma 4 Este 0 -- -- 47
2019-06-16 09:00:00 12.4 0 Calma 4 Norte 0 -- -- 66
2019-06-16 08:00:00 6.8 0 Calma 3 Norte 0 -- -- 83
2019-06-16 07:00:00 6.7 0 Calma 3 Norte 0 -- -- 82
2019-06-16 06:00:00 7.9 0 Calma 6 Norte 0 -- -- 77
2019-06-16 05:00:00 9.1 4 Norte 7 Norte 0 -- -- 72
2019-06-16 04:00:00 9.4 4 Norte 7 Noroeste 0 -- -- 69
2019-06-16 03:00:00 10.3 4 Norte 8 Norte 0 -- -- 65
2019-06-16 02:00:00 11.1 2 Norte 6 Norte 0 -- -- 63
2019-06-16 01:00:00 12.6 2 Noroeste 5 Noroeste 0 -- -- 58
2019-06-16 00:00:00 14.3 3 Noroeste 8 Norte 0 -- -- 52